Time;durP1;ratioP1;P1;durP2;ratioP2;P2;SDS_P1;SDS_P2;PMS_P1;PMS_P2;Temp;Humidity;BMP_temperature;BMP_pressure;BME280_temperature;BME280_humidity;BME280_pressure;Samples;Min_cycle;Max_cycle;Signal;HPM_P1;HPM_P2
2021/11/11 06:33:08;;;;;;;17.80;8.80;;;17.00;71.80;;;;;;4800836;29;20146;-67
2021/11/11 06:35:34;;;;;;;22.92;9.63;;;17.20;71.40;;;;;;4809158;29;20414;-69
2021/11/11 06:38:01;;;;;;;18.92;8.20;;;17.30;71.50;;;;;;4808469;29;20374;-69
2021/11/11 06:40:29;;;;;;;13.80;8.15;;;17.40;71.70;;;;;;4808326;29;20058;-69
2021/11/11 06:42:56;;;;;;;14.10;8.98;;;17.50;71.80;;;;;;4808265;29;20501;-71
2021/11/11 06:45:23;;;;;;;13.45;8.18;;;17.50;71.90;;;;;;4808554;29;20155;-70
2021/11/11 06:47:48;;;;;;;11.82;7.70;;;17.50;72.00;;;;;;4808649;29;20339;-70
2021/11/11 06:50:14;;;;;;;19.80;8.35;;;17.60;72.00;;;;;;4808007;29;20066;-71
2021/11/11 06:52:40;;;;;;;16.45;8.80;;;17.60;72.10;;;;;;4807173;29;20486;-70
2021/11/11 06:55:08;;;;;;;18.70;8.57;;;17.60;72.10;;;;;;4808526;29;20072;-71
2021/11/11 06:57:34;;;;;;;23.33;9.32;;;17.60;72.10;;;;;;4808642;29;20166;-69
2021/11/11 06:59:59;;;;;;;15.20;8.82;;;17.50;71.70;;;;;;4808225;29;20486;-70
2021/11/11 07:02:26;;;;;;;17.83;8.38;;;17.60;72.10;;;;;;4792135;29;20450;-69
2021/11/11 07:04:55;;;;;;;14.32;9.10;;;17.60;72.10;;;;;;4808027;29;20058;-69
2021/11/11 07:07:21;;;;;;;19.10;8.20;;;17.60;72.30;;;;;;4809277;29;20394;-72
2021/11/11 07:09:47;;;;;;;16.50;8.90;;;17.70;72.10;;;;;;4792869;29;20133;-71
2021/11/11 07:12:15;;;;;;;16.75;7.63;;;17.70;72.10;;;;;;4792001;29;20135;-75
2021/11/11 07:14:42;;;;;;;17.67;9.20;;;17.70;72.30;;;;;;4808019;29;20042;-73
2021/11/11 07:17:09;;;;;;;19.80;10.38;;;17.80;72.20;;;;;;4791857;29;20053;-74
2021/11/11 07:19:35;;;;;;;20.30;12.25;;;17.90;71.70;;;;;;4807487;29;20378;-74
2021/11/11 07:22:02;;;;;;;24.48;13.73;;;17.90;71.20;;;;;;4792083;29;20050;-73
2021/11/11 07:24:30;;;;;;;25.42;13.10;;;18.00;70.70;;;;;;4792314;29;20457;-74
2021/11/11 07:26:56;;;;;;;18.90;12.75;;;18.00;70.10;;;;;;4808020;29;20397;-72
2021/11/11 07:29:21;;;;;;;18.73;12.27;;;18.10;69.40;;;;;;4791782;29;20059;-73
2021/11/11 07:31:52;;;;;;;21.85;11.82;;;18.30;69.00;;;;;;4817203;29;20141;-77
2021/11/11 07:34:21;;;;;;;20.23;11.75;;;18.40;68.90;;;;;;4825992;29;20187;-83
2021/11/11 07:36:47;;;;;;;17.80;11.45;;;18.40;68.90;;;;;;4794442;29;20043;-75
2021/11/11 07:39:15;;;;;;;20.35;12.23;;;18.60;68.40;;;;;;4825844;29;20065;-71
2021/11/11 07:41:43;;;;;;;20.38;11.57;;;18.70;68.00;;;;;;4826148;29;20039;-72
2021/11/11 07:44:10;;;;;;;17.27;10.50;;;18.80;67.60;;;;;;4809804;29;20374;-72
2021/11/11 07:46:37;;;;;;;18.10;10.18;;;18.90;67.30;;;;;;4825782;29;20054;-70
2021/11/11 07:49:04;;;;;;;15.00;9.57;;;18.90;67.10;;;;;;4809784;29;20167;-76
2021/11/11 07:51:30;;;;;;;16.90;11.07;;;18.90;67.10;;;;;;4813376;29;20058;-73
2021/11/11 07:53:56;;;;;;;16.88;10.48;;;19.00;66.80;;;;;;4829373;29;20446;-71
2021/11/11 07:56:22;;;;;;;19.00;10.60;;;19.00;66.60;;;;;;4812877;29;20046;-70
2021/11/11 07:58:48;;;;;;;18.88;10.07;;;19.00;66.60;;;;;;4829210;29;20057;-73
2021/11/11 08:01:13;;;;;;;21.30;10.43;;;18.90;66.80;;;;;;4828422;29;20046;-71
2021/11/11 08:03:39;;;;;;;18.45;9.75;;;18.90;67.00;;;;;;4813084;29;20046;-70
2021/11/11 08:06:05;;;;;;;20.65;10.18;;;18.90;67.30;;;;;;4828970;29;20051;-72
2021/11/11 08:08:30;;;;;;;12.85;8.77;;;18.80;67.30;;;;;;4813225;29;20469;-71
2021/11/11 08:10:58;;;;;;;14.68;9.35;;;18.80;67.40;;;;;;4829091;29;20058;-71
2021/11/11 08:13:23;;;;;;;12.75;8.18;;;18.80;67.40;;;;;;4813076;29;20054;-70
2021/11/11 08:15:49;;;;;;;17.15;9.57;;;18.80;67.50;;;;;;4828912;29;20469;-71
2021/11/11 08:18:15;;;;;;;14.65;8.60;;;18.80;67.50;;;;;;4828846;29;20461;-71
2021/11/11 08:20:41;;;;;;;13.52;8.27;;;18.80;67.70;;;;;;4828603;29;20054;-71
2021/11/11 08:23:06;;;;;;;13.00;7.60;;;18.70;67.60;;;;;;4828180;29;20054;-71
2021/11/11 08:25:33;;;;;;;11.30;7.35;;;18.70;67.70;;;;;;4828143;29;20050;-72
2021/11/11 08:27:58;;;;;;;14.80;7.90;;;18.70;67.70;;;;;;4817015;29;20187;-72
2021/11/11 08:30:24;;;;;;;12.93;7.47;;;18.70;67.80;;;;;;4810679;29;20099;-72
2021/11/11 08:32:52;;;;;;;13.98;7.72;;;18.70;67.80;;;;;;4826771;29;20447;-73
2021/11/11 08:35:19;;;;;;;12.55;8.10;;;18.70;67.90;;;;;;4825818;29;20043;-71
2021/11/11 08:37:46;;;;;;;12.38;6.68;;;18.70;68.00;;;;;;4859991;29;20093;-73
2021/11/11 08:40:14;;;;;;;17.55;8.93;;;18.70;68.20;;;;;;4839339;29;20477;-73
2021/11/11 08:42:40;;;;;;;16.90;9.73;;;18.70;67.80;;;;;;4827265;29;20050;-73
2021/11/11 08:45:06;;;;;;;15.35;9.30;;;18.70;67.50;;;;;;4827415;29;20128;-73
2021/11/11 08:47:33;;;;;;;11.63;8.27;;;18.60;67.40;;;;;;4827303;29;20046;-72
2021/11/11 08:49:58;;;;;;;15.27;9.57;;;18.60;67.50;;;;;;4827433;29;20093;-72
2021/11/11 08:52:25;;;;;;;14.95;9.05;;;18.60;67.60;;;;;;4827592;29;20078;-74
2021/11/11 08:54:54;;;;;;;16.60;9.00;;;18.60;67.60;;;;;;4827411;29;20056;-74
2021/11/11 08:57:20;;;;;;;14.45;8.60;;;18.50;67.60;;;;;;4827933;29;20378;-74
2021/11/11 08:59:52;;;;;;;14.85;8.15;;;18.40;67.70;;;;;;4827318;29;20050;-76
2021/11/11 09:02:19;;;;;;;13.60;8.23;;;18.50;68.20;;;;;;4825979;29;20127;-73
2021/11/11 09:04:47;;;;;;;18.60;8.15;;;18.40;68.20;;;;;;4811282;29;20620;-73
2021/11/11 09:07:13;;;;;;;11.15;8.05;;;18.30;68.20;;;;;;4827504;29;20355;-72
2021/11/11 09:09:39;;;;;;;16.55;8.50;;;18.30;68.30;;;;;;4827399;29;20103;-73
2021/11/11 09:12:05;;;;;;;15.43;7.95;;;18.30;68.50;;;;;;4827170;29;20456;-72
2021/11/11 09:14:31;;;;;;;13.30;8.10;;;18.30;68.90;;;;;;4827407;29;20077;-73
2021/11/11 09:16:58;;;;;;;13.10;8.30;;;18.20;68.80;;;;;;4827417;29;20076;-75
2021/11/11 09:19:24;;;;;;;13.07;8.35;;;18.20;68.70;;;;;;4827424;29;20449;-76
2021/11/11 09:21:50;;;;;;;12.82;7.50;;;18.10;68.60;;;;;;4826969;29;20081;-75
2021/11/11 09:24:16;;;;;;;19.15;8.25;;;18.10;68.70;;;;;;4827481;29;20082;-77
2021/11/11 09:26:42;;;;;;;10.20;7.60;;;18.10;68.70;;;;;;4826881;29;20046;-75
2021/11/11 09:29:08;;;;;;;12.50;8.23;;;18.00;68.70;;;;;;4810771;29;20139;-75
2021/11/11 09:31:36;;;;;;;11.32;7.10;;;18.00;68.80;;;;;;4779563;29;1095238;-76
2021/11/11 09:34:03;;;;;;;11.63;7.68;;;18.00;68.90;;;;;;4845668;29;20449;-75
2021/11/11 09:36:29;;;;;;;11.30;6.93;;;17.90;69.00;;;;;;4845581;29;20458;-77
2021/11/11 09:38:55;;;;;;;9.50;7.20;;;17.90;69.20;;;;;;4845879;29;20215;-75
2021/11/11 09:41:22;;;;;;;10.73;6.32;;;17.90;69.30;;;;;;4845703;29;20468;-75
2021/11/11 09:43:47;;;;;;;9.23;6.68;;;17.80;69.30;;;;;;4845519;29;20080;-75
2021/11/11 09:46:15;;;;;;;8.93;5.82;;;17.80;69.50;;;;;;4845657;29;20462;-75
2021/11/11 09:48:42;;;;;;;11.48;6.13;;;17.80;69.70;;;;;;4846458;29;20129;-75
2021/11/11 09:51:13;;;;;;;10.32;6.15;;;17.80;69.90;;;;;;4845574;29;20133;-75
2021/11/11 09:59:09;;;;;;;11.23;5.95;;;17.70;70.10;;;;;;4845725;29;20136;-75
2021/11/11 10:01:35;;;;;;;7.43;5.75;;;17.70;70.10;;;;;;4845467;29;20065;-76
2021/11/11 10:04:01;;;;;;;7.70;5.20;;;17.70;70.20;;;;;;4845891;29;20335;-75
2021/11/11 10:06:28;;;;;;;9.88;5.93;;;17.70;70.30;;;;;;4829508;29;20478;-76
2021/11/11 10:08:56;;;;;;;7.75;5.25;;;17.60;70.40;;;;;;4829454;29;20120;-75
2021/11/11 10:11:35;;;;;;;7.97;5.65;;;17.60;70.40;;;;;;4845468;29;20449;-75
2021/11/11 10:14:07;;;;;;;8.38;5.45;;;17.60;70.30;;;;;;4845100;29;20054;-75
2021/11/11 10:16:47;;;;;;;7.28;5.50;;;17.60;70.60;;;;;;4829167;29;20053;-75
2021/11/11 10:19:15;;;;;;;8.25;5.50;;;17.60;70.60;;;;;;4829013;29;20064;-76
2021/11/11 10:21:48;;;;;;;7.25;5.25;;;17.50;70.60;;;;;;4844730;29;20469;-76
2021/11/11 10:24:20;;;;;;;8.25;5.15;;;17.50;70.60;;;;;;4814213;29;20071;-75
2021/11/11 10:27:31;;;;;;;7.32;5.30;;;17.50;70.60;;;;;;4845211;29;20061;-75
2021/11/11 10:30:12;;;;;;;7.57;5.00;;;17.50;70.40;;;;;;4811553;29;20058;-76
2021/11/11 10:32:41;;;;;;;7.28;5.25;;;17.50;70.60;;;;;;4823283;29;20054;-76
2021/11/11 10:35:13;;;;;;;8.15;5.05;;;17.50;70.70;;;;;;4810840;29;20054;-76
2021/11/11 10:37:48;;;;;;;6.90;4.82;;;17.50;70.60;;;;;;4810525;29;20086;-75
2021/11/11 10:40:18;;;;;;;8.05;5.07;;;17.50;70.50;;;;;;4810416;29;20117;-75
2021/11/11 10:42:46;;;;;;;6.15;4.78;;;17.50;70.60;;;;;;4826910;29;20057;-71
2021/11/11 10:45:16;;;;;;;8.23;6.43;;;17.50;70.50;;;;;;4810284;29;20058;-72
2021/11/11 10:47:48;;;;;;;7.55;5.78;;;17.50;70.50;;;;;;4826851;29;20057;-72
2021/11/11 10:50:18;;;;;;;7.22;5.57;;;17.50;70.60;;;;;;4826655;29;20103;-73
2021/11/11 10:52:50;;;;;;;9.35;6.50;;;17.50;70.70;;;;;;4826658;29;20046;-72
2021/11/11 10:55:26;;;;;;;9.13;6.00;;;17.50;70.70;;;;;;4826346;29;20065;-71
2021/11/11 10:58:12;;;;;;;9.18;5.40;;;17.50;70.70;;;;;;4810396;29;20058;-71
2021/11/11 11:00:43;;;;;;;11.75;5.55;;;17.50;70.80;;;;;;4826143;29;20474;-76
2021/11/11 11:03:30;;;;;;;8.35;5.72;;;17.50;70.90;;;;;;4810128;29;20062;-73
2021/11/11 11:05:58;;;;;;;7.00;5.32;;;17.50;70.90;;;;;;4817737;29;20047;-75
2021/11/11 11:08:28;;;;;;;7.90;5.78;;;17.40;70.70;;;;;;4823684;29;20077;-73
2021/11/11 11:11:18;;;;;;;8.15;5.20;;;17.40;70.50;;;;;;4836490;29;20129;-73
2021/11/11 11:13:51;;;;;;;7.90;5.30;;;17.40;70.70;;;;;;4810630;29;20146;-74
2021/11/11 11:16:28;;;;;;;8.75;5.15;;;17.50;70.70;;;;;;4837237;29;20122;-74
2021/11/11 11:18:58;;;;;;;8.48;4.25;;;17.60;70.60;;;;;;4838291;29;20539;-72
2021/11/11 11:21:25;;;;;;;9.23;5.43;;;17.70;70.40;;;;;;4826097;29;20094;-77
2021/11/11 11:23:58;;;;;;;7.28;4.65;;;17.80;70.30;;;;;;4810162;29;20134;-73
2021/11/11 11:26:29;;;;;;;12.43;5.13;;;17.80;70.20;;;;;;4825034;29;20156;-74
2021/11/11 11:29:08;;;;;;;10.13;5.07;;;17.90;70.20;;;;;;4826704;29;20054;-74
2021/11/11 11:31:46;;;;;;;8.40;4.97;;;17.90;70.20;;;;;;4825680;29;20062;-71
2021/11/11 11:35:07;;;;;;;11.32;5.30;;;17.90;70.20;;;;;;4825727;29;20078;-76
2021/11/11 11:37:35;;;;;;;11.23;6.05;;;17.90;70.10;;;;;;4795166;29;20088;-75
2021/11/11 11:40:18;;;;;;;9.35;6.35;;;17.90;70.10;;;;;;4826284;29;20081;-74
2021/11/11 11:42:47;;;;;;;13.82;6.13;;;17.90;70.10;;;;;;4826079;29;20050;-75
2021/11/11 11:45:14;;;;;;;13.18;6.55;;;17.90;70.20;;;;;;4826220;29;20137;-73
2021/11/11 11:47:48;;;;;;;14.68;5.93;;;17.90;70.30;;;;;;4825934;29;20053;-74
2021/11/11 11:50:20;;;;;;;12.90;6.75;;;17.90;70.40;;;;;;4825649;29;20086;-70
2021/11/11 11:52:51;;;;;;;10.18;6.43;;;17.80;71.10;;;;;;4825855;29;20053;-71
2021/11/11 11:55:38;;;;;;;9.63;6.25;;;17.80;70.70;;;;;;4811112;29;20145;-72
2021/11/11 12:03:29;;;;;;;8.57;6.05;;;17.70;70.90;;;;;;4808275;29;20120;-72
2021/11/11 12:08:52;;;;;;;10.63;5.70;;;17.70;71.10;;;;;;4808367;29;20007;-72
2021/11/11 12:14:00;;;;;;;16.67;5.68;;;17.60;71.20;;;;;;4809631;29;20055;-72
2021/11/11 12:16:47;;;;;;;8.57;5.72;;;17.60;71.30;;;;;;4808155;29;20188;-73
2021/11/11 12:39:34;;;;;;;5.80;4.60;;;17.40;71.90;;;;;;4828571;29;20061;-72
2021/11/11 12:42:03;;;;;;;7.93;4.45;;;17.40;71.80;;;;;;4828539;29;20105;-73
2021/11/11 12:44:30;;;;;;;10.38;4.35;;;17.40;71.90;;;;;;4828450;29;20431;-73
2021/11/11 12:46:56;;;;;;;8.20;4.32;;;17.50;72.00;;;;;;4828498;29;20123;-73
2021/11/11 12:49:34;;;;;;;7.95;4.03;;;17.50;71.90;;;;;;4812706;29;20484;-74
2021/11/11 12:52:12;;;;;;;7.30;4.68;;;17.50;71.90;;;;;;4829053;29;20370;-80
2021/11/11 12:54:43;;;;;;;7.53;4.53;;;17.50;72.00;;;;;;4812618;29;20054;-76
2021/11/11 12:57:10;;;;;;;7.70;5.00;;;17.50;71.90;;;;;;4828200;29;20084;-77
2021/11/11 12:59:37;;;;;;;13.52;7.47;;;17.60;71.90;;;;;;4813120;29;20062;-71
2021/11/11 13:02:09;;;;;;;9.27;5.90;;;17.40;71.50;;;;;;4828226;29;20102;-72
2021/11/11 13:04:54;;;;;;;10.52;5.75;;;17.40;71.90;;;;;;4812971;29;20063;-72
2021/11/11 13:07:30;;;;;;;7.70;5.85;;;17.40;71.80;;;;;;4828420;29;20038;-71
2021/11/11 13:10:19;;;;;;;7.53;5.68;;;17.40;71.80;;;;;;4828146;29;20138;-72
2021/11/11 13:13:09;;;;;;;6.38;5.25;;;17.50;71.80;;;;;;4828039;29;20165;-71
2021/11/11 13:15:42;;;;;;;6.60;4.93;;;17.50;71.80;;;;;;4828082;29;20099;-72
2021/11/11 13:18:09;;;;;;;8.02;4.93;;;17.50;71.90;;;;;;4828092;29;20057;-72
2021/11/11 13:20:48;;;;;;;6.40;4.50;;;17.40;71.80;;;;;;4827969;29;20132;-72
2021/11/11 13:23:33;;;;;;;6.45;4.72;;;17.50;71.90;;;;;;4827997;29;20046;-72
2021/11/11 13:29:05;;;;;;;5.90;4.30;;;17.50;71.90;;;;;;4828005;29;20054;-72
2021/11/11 13:58:41;;;;;;;4.78;3.60;;;17.40;71.70;;;;;;4807128;29;20058;-71
2021/11/11 15:57:03;;;;;;;13.27;7.57;;;18.00;72.30;;;;;;4825649;29;20097;-76
2021/11/11 16:20:17;;;;;;;17.02;8.77;;;18.10;73.40;;;;;;4828899;29;20149;-75
2021/11/11 16:27:50;;;;;;;21.10;8.35;;;18.10;73.70;;;;;;4828754;29;20042;-75
2021/11/11 16:30:19;;;;;;;16.88;8.52;;;18.10;73.70;;;;;;4827866;29;20439;-76
2021/11/11 16:32:45;;;;;;;22.95;9.85;;;18.10;73.80;;;;;;4827678;29;20066;-76
2021/11/11 16:35:14;;;;;;;16.92;8.90;;;18.10;73.80;;;;;;4825918;29;20058;-74
2021/11/11 16:37:43;;;;;;;15.75;8.38;;;18.00;73.70;;;;;;4828085;29;20518;-75
2021/11/11 16:40:13;;;;;;;16.90;8.27;;;18.10;73.60;;;;;;4828858;29;20073;-75
2021/11/11 16:42:39;;;;;;;12.63;8.77;;;18.00;74.10;;;;;;4828046;29;20054;-75
2021/11/11 16:45:06;;;;;;;14.85;8.38;;;18.00;73.50;;;;;;4817390;29;20439;-76
2021/11/11 16:47:32;;;;;;;14.85;8.18;;;18.00;73.40;;;;;;4828365;29;20046;-76
2021/11/11 16:49:58;;;;;;;12.68;8.32;;;18.00;73.40;;;;;;4828171;29;20145;-75
2021/11/11 16:52:25;;;;;;;16.25;8.30;;;17.90;73.30;;;;;;4829045;29;20057;-77
2021/11/11 16:54:51;;;;;;;14.77;8.48;;;17.90;73.30;;;;;;4828518;29;20130;-75
2021/11/11 16:57:17;;;;;;;14.52;8.82;;;17.90;73.20;;;;;;4828419;29;20358;-76
2021/11/11 16:59:44;;;;;;;14.13;8.43;;;17.90;73.20;;;;;;4828255;29;20046;-75
2021/11/11 17:02:10;;;;;;;12.45;9.23;;;17.90;73.70;;;;;;4812069;29;20073;-76
2021/11/11 17:04:37;;;;;;;16.27;8.63;;;17.90;73.10;;;;;;4827890;29;20454;-74
2021/11/11 17:07:03;;;;;;;12.98;9.30;;;17.80;73.00;;;;;;4828412;29;20054;-76
2021/11/11 17:09:29;;;;;;;14.02;8.75;;;17.80;73.00;;;;;;4828903;29;20055;-75
2021/11/11 17:11:55;;;;;;;12.75;8.75;;;17.80;73.00;;;;;;4828232;29;20060;-75
2021/11/11 17:14:26;;;;;;;11.32;8.13;;;17.80;73.00;;;;;;4827993;29;20133;-76
2021/11/11 17:16:53;;;;;;;13.60;8.27;;;17.80;73.00;;;;;;4811785;29;20065;-76
2021/11/11 17:19:22;;;;;;;11.70;7.72;;;17.80;73.00;;;;;;4812602;29;20050;-76
2021/11/11 17:21:49;;;;;;;15.10;9.13;;;17.80;73.00;;;;;;4827465;29;20046;-75
2021/11/11 17:24:21;;;;;;;15.23;9.10;;;17.70;73.00;;;;;;4827964;29;20061;-76
2021/11/11 17:29:23;;;;;;;12.25;9.13;;;17.70;73.00;;;;;;4827937;29;20062;-76
2021/11/11 17:31:50;;;;;;;12.80;8.50;;;17.70;73.00;;;;;;4827520;29;20058;-74
2021/11/11 17:34:17;;;;;;;10.23;8.23;;;17.70;73.00;;;;;;4812215;29;20118;-76
2021/11/11 17:36:43;;;;;;;13.10;9.50;;;17.70;73.00;;;;;;4826260;29;20122;-76
2021/11/11 17:39:11;;;;;;;12.38;8.35;;;17.60;72.90;;;;;;4827948;29;20129;-75
2021/11/11 17:41:37;;;;;;;11.73;8.77;;;17.70;73.00;;;;;;4827381;29;20058;-75
2021/11/11 17:44:07;;;;;;;15.40;8.85;;;17.60;73.60;;;;;;4809587;29;20097;-75
2021/11/11 17:46:37;;;;;;;14.13;9.20;;;17.60;73.10;;;;;;4809332;29;20051;-76
2021/11/11 17:49:04;;;;;;;13.45;10.07;;;17.60;73.10;;;;;;4809292;29;20070;-74
2021/11/11 17:54:05;;;;;;;13.13;10.25;;;17.70;73.00;;;;;;4809097;29;20133;-74
2021/11/11 17:56:31;;;;;;;14.05;9.55;;;17.70;73.00;;;;;;4809101;29;20059;-75
2021/11/11 17:58:58;;;;;;;14.95;10.25;;;17.70;73.00;;;;;;4809059;29;20050;-74
2021/11/11 18:01:29;;;;;;;15.15;10.18;;;17.60;72.90;;;;;;4793264;29;20138;-74
2021/11/11 18:03:56;;;;;;;12.10;9.90;;;17.70;73.00;;;;;;4826741;29;20054;-74
2021/11/11 18:06:29;;;;;;;14.70;10.43;;;17.70;72.90;;;;;;4811331;29;20197;-76
2021/11/11 18:08:58;;;;;;;14.13;11.43;;;17.70;72.80;;;;;;4827339;29;20477;-74
2021/11/11 18:11:29;;;;;;;14.88;11.13;;;17.70;72.70;;;;;;4827159;29;20057;-74
2021/11/11 18:14:05;;;;;;;13.32;9.88;;;17.70;72.60;;;;;;4826955;29;20061;-76
2021/11/11 18:16:35;;;;;;;15.18;11.18;;;17.70;72.50;;;;;;4811125;29;20058;-74
2021/11/11 18:19:01;;;;;;;16.25;11.77;;;17.70;72.60;;;;;;4813907;29;20475;-74
2021/11/11 18:21:28;;;;;;;16.35;11.35;;;17.70;72.60;;;;;;4826978;29;20065;-75
2021/11/11 18:23:54;;;;;;;15.52;12.18;;;17.70;72.60;;;;;;4826874;29;20050;-74
2021/11/11 18:26:22;;;;;;;17.13;11.07;;;17.60;72.70;;;;;;4827064;29;20046;-75
2021/11/11 18:28:55;;;;;;;16.83;12.23;;;17.60;72.80;;;;;;4826878;29;20058;-74
2021/11/11 18:31:26;;;;;;;16.75;11.13;;;17.60;72.80;;;;;;4826665;29;20145;-73
2021/11/11 18:34:00;;;;;;;19.63;12.65;;;17.60;73.00;;;;;;4826121;29;20069;-75
2021/11/11 18:36:32;;;;;;;;;;;17.60;72.90;;;;;;4827338;29;20407;-75
2021/11/11 18:38:58;;;;;;;17.73;12.82;;;17.60;72.80;;;;;;4810736;29;19924;-74
2021/11/11 18:41:24;;;;;;;17.63;12.98;;;17.60;73.00;;;;;;4810810;29;20058;-75
2021/11/11 18:43:50;;;;;;;18.40;13.23;;;17.60;73.00;;;;;;4826947;29;20047;-75
2021/11/11 18:46:16;;;;;;;19.42;13.77;;;17.60;72.90;;;;;;4811082;29;20058;-73
2021/11/11 18:48:44;;;;;;;20.30;13.95;;;17.60;73.00;;;;;;4826414;29;20122;-73
2021/11/11 18:51:17;;;;;;;19.52;13.73;;;17.60;72.90;;;;;;4826622;29;20061;-75
2021/11/11 18:53:45;;;;;;;20.80;14.15;;;17.60;72.80;;;;;;4826605;29;20055;-73
2021/11/11 18:56:11;;;;;;;19.95;14.02;;;17.60;72.70;;;;;;4826908;29;20070;-74
2021/11/11 18:58:36;;;;;;;21.23;14.00;;;17.60;72.60;;;;;;4810316;29;20058;-76
2021/11/11 19:01:08;;;;;;;21.88;14.90;;;17.50;72.50;;;;;;4827069;29;20061;-74
2021/11/11 19:03:36;;;;;;;19.52;13.45;;;17.60;72.70;;;;;;4826406;29;20069;-73
2021/11/11 19:06:27;;;;;;;21.48;14.27;;;17.60;72.70;;;;;;4806608;29;20138;-74
2021/11/11 19:11:40;;;;;;;23.63;14.77;;;17.60;72.60;;;;;;4825582;29;20371;-74
2021/11/11 19:14:08;;;;;;;21.10;14.77;;;17.60;72.70;;;;;;4826089;29;20054;-75
2021/11/11 19:16:49;;;;;;;23.40;15.80;;;17.50;72.70;;;;;;4826316;29;20054;-73
2021/11/11 19:19:22;;;;;;;23.05;15.23;;;17.50;72.70;;;;;;4826300;29;20042;-74
2021/11/11 19:21:53;;;;;;;23.02;15.65;;;17.50;72.90;;;;;;4826497;29;20074;-74
2021/11/11 19:24:19;;;;;;;22.55;15.50;;;17.50;72.90;;;;;;4826705;29;20064;-73
2021/11/11 19:26:45;;;;;;;22.33;15.52;;;17.50;72.90;;;;;;4810126;29;20454;-74
2021/11/11 19:29:11;;;;;;;20.25;14.98;;;17.50;72.90;;;;;;4826326;29;20099;-74
2021/11/11 19:31:39;;;;;;;22.40;16.15;;;17.50;72.90;;;;;;4825947;29;20065;-74
